Chautauqua County-Jamestown Airport Jamestown US
ICAO: KJHW
IATA: JHW
Category: Medium
Scheduled Services: No

Elevation: 1723 ft
TransAlt. 18000 ft.

Airport Communications:
ERIE APP/DEP:126.05
AWOS 3:118.425
BUFFALO RDO:114.7
CTAF/UNICOM:122.7

KJHW Zoom In..

If Map Doesn't Load, Click Here

Runways:

(A) RW 07 length 5299 ft width 100 ft
---- / hdg 69

(B) RW 13 length 4500 ft width 100 ft
---- / hdg 129

(C) RW 25 length 5299 ft width 100 ft
ILS 109.70 / hdg 249

(D) RW 31 length 4500 ft width 100 ft
---- / hdg 309

Location; KJHW
Day. 21 / Time. 14.56 Zulu
* Altimeter: 30.00
* Temperature: 6/° c. 42.8°f.
* Wind from: 200° Speed 12 kn with Gusts up to 19 kn.
Dewpoint: //° c.
Visibility: 10 Statute Miles.
Clouds: Few 2200 ft.

KJHW 211456Z AUTO 20012G19KT 10SM FEW022 24/21 A3000 RMK AO2 SLP153 6//// T02440206 58015 PNO $


Wind From 200°
Speed 12 kn.

 
 
jpsmedia.com for Web Design worldairports.se 2018   terms of use